Time;durP1;ratioP1;P1;durP2;ratioP2;P2;SDS_P1;SDS_P2;PMS_P1;PMS_P2;Temp;Humidity;BMP_temperature;BMP_pressure;BME280_temperature;BME280_humidity;BME280_pressure;Samples;Min_cycle;Max_cycle;Signal;HPM_P1;HPM_P2
2021/09/30 00:01:08;;;;;;;13.80;7.00;;;;;;;11.81;51.61;101880.30;117368;1186;22905;-54
2021/09/30 00:03:37;;;;;;;11.70;7.40;;;;;;;11.75;51.63;101882.55;117410;1182;22976;-54
2021/09/30 00:06:05;;;;;;;10.90;7.10;;;;;;;11.73;51.51;101877.42;117292;1185;23577;-55
2021/09/30 00:08:34;;;;;;;10.20;6.80;;;;;;;11.69;51.83;101875.48;117112;1187;23570;-54
2021/09/30 00:11:10;;;;;;;8.40;6.70;;;;;;;11.65;51.82;101875.80;117302;1182;23258;-54
2021/09/30 00:13:53;;;;;;;9.70;7.00;;;;;;;11.63;51.77;101875.08;117338;1186;23557;-54
2021/09/30 00:16:33;;;;;;;13.80;6.60;;;;;;;11.63;51.75;101873.50;117253;1183;21977;-55
2021/09/30 00:41:47;;;;;;;8.40;6.30;;;;;;;11.43;51.96;101876.34;117122;1186;23545;-55
2021/09/30 00:47:29;;;;;;;10.10;6.30;;;;;;;11.45;51.83;101875.48;117310;1186;23557;-55
2021/09/30 00:50:07;;;;;;;11.00;6.80;;;;;;;11.39;51.69;101875.95;117252;1186;23547;-55
2021/09/30 00:53:02;;;;;;;10.10;6.50;;;;;;;11.32;51.83;101879.40;117378;1185;23566;-55
2021/09/30 01:18:31;;;;;;;10.50;6.10;;;;;;;11.33;51.59;101876.24;117339;1185;23564;-55
2021/09/30 01:57:35;;;;;;;9.90;6.80;;;;;;;10.98;51.75;101885.06;117290;1185;23545;-55
2021/09/30 02:39:57;;;;;;;10.60;6.70;;;;;;;10.85;51.84;101899.86;117306;1183;21861;-59
2021/09/30 02:59:15;;;;;;;16.40;7.60;;;;;;;10.42;51.79;101917.78;117132;1185;21864;-59
2021/09/30 03:01:44;;;;;;;;;;;;;;;10.34;51.66;101917.84;117340;1182;23535;-59
2021/09/30 03:04:13;;;;;;;11.20;6.80;;;;;;;10.28;51.74;101920.02;117396;1182;22410;-55
2021/09/30 03:06:41;;;;;;;15.40;7.20;;;;;;;10.21;51.87;101925.00;117456;1186;21999;-55
2021/09/30 03:09:11;;;;;;;10.30;7.10;;;;;;;10.14;51.80;101922.45;117363;1185;22964;-60
2021/09/30 03:12:00;;;;;;;11.80;7.20;;;;;;;10.07;51.80;101924.46;117301;1188;21871;-59
2021/09/30 03:14:31;;;;;;;11.50;7.60;;;;;;;10.01;51.96;101920.34;117323;1186;21854;-55
2021/09/30 03:17:03;;;;;;;12.00;7.80;;;;;;;9.96;51.90;101923.61;117196;1182;21857;-55
2021/09/30 03:19:48;;;;;;;10.10;7.80;;;;;;;9.95;51.88;101923.23;117291;1184;21867;-55
2021/09/30 03:22:16;;;;;;;12.00;8.50;;;;;;;9.96;51.95;101922.71;117257;1182;23576;-55
2021/09/30 03:24:50;;;;;;;12.60;7.90;;;;;;;9.96;52.04;101923.77;117317;1185;21865;-54
2021/09/30 03:27:19;;;;;;;15.40;8.80;;;;;;;9.97;51.96;101925.37;117328;1183;23733;-55
2021/09/30 03:29:47;;;;;;;14.20;8.40;;;;;;;10.00;51.93;101927.16;117275;1185;21855;-55
2021/09/30 03:32:15;;;;;;;12.40;8.10;;;;;;;10.02;52.07;101927.53;117334;1185;24281;-55
2021/09/30 03:34:45;;;;;;;12.30;8.60;;;;;;;10.04;52.17;101925.46;117350;1182;24006;-55
2021/09/30 03:37:14;;;;;;;14.10;9.30;;;;;;;10.01;52.14;101930.67;117252;1181;24154;-55
2021/09/30 03:39:42;;;;;;;15.60;9.00;;;;;;;9.96;52.32;101929.40;117272;1186;22939;-59
2021/09/30 03:42:10;;;;;;;14.80;9.60;;;;;;;9.97;52.33;101922.21;117181;1186;23637;-59
2021/09/30 03:44:40;;;;;;;15.20;9.70;;;;;;;9.97;52.30;101925.72;117282;1185;23647;-59
2021/09/30 03:47:08;;;;;;;14.40;9.60;;;;;;;9.98;52.30;101925.03;117317;1182;23522;-59
2021/09/30 03:49:38;;;;;;;15.40;9.70;;;;;;;10.01;52.35;101923.48;117339;1183;23552;-59
2021/09/30 03:52:16;;;;;;;20.00;9.90;;;;;;;10.00;52.60;101922.23;117438;1185;22850;-59
2021/09/30 03:55:02;;;;;;;15.40;10.00;;;;;;;10.00;52.43;101923.12;117346;1182;23590;-59
2021/09/30 04:00:06;;;;;;;14.70;9.30;;;;;;;10.04;52.56;101918.62;117300;1185;23573;-59
2021/09/30 04:02:37;;;;;;;16.60;9.90;;;;;;;10.05;52.49;101920.05;117265;1183;23884;-59
2021/09/30 04:05:06;;;;;;;14.70;10.20;;;;;;;10.06;52.47;101923.92;117347;1185;23643;-59
2021/09/30 04:07:34;;;;;;;15.90;10.90;;;;;;;10.08;52.52;101926.94;117328;1185;21867;-59
2021/09/30 04:10:04;;;;;;;15.40;10.60;;;;;;;10.10;52.57;101928.89;117279;1186;21888;-59
2021/09/30 04:12:32;;;;;;;19.00;9.90;;;;;;;10.16;52.50;101931.42;117364;1186;21855;-59
2021/09/30 04:15:00;;;;;;;19.80;9.90;;;;;;;10.18;52.50;101935.85;117348;1185;21915;-59
2021/09/30 04:17:28;;;;;;;24.30;11.20;;;;;;;10.21;52.58;101935.54;117361;1185;23544;-59
2021/09/30 04:19:57;;;;;;;21.50;10.80;;;;;;;10.25;52.58;101935.41;117304;1185;23557;-59
2021/09/30 04:22:25;;;;;;;16.00;10.20;;;;;;;10.27;52.59;101936.15;117304;1186;23466;-59
2021/09/30 04:24:53;;;;;;;16.40;9.80;;;;;;;10.30;52.55;101936.89;117303;1186;21983;-60
2021/09/30 04:27:21;;;;;;;18.80;11.30;;;;;;;10.32;52.57;101938.86;117566;1182;23557;-59
2021/09/30 04:29:49;;;;;;;16.90;11.10;;;;;;;10.34;52.60;101940.45;117315;1185;21858;-59
2021/09/30 04:32:17;;;;;;;17.00;10.50;;;;;;;10.37;52.65;101940.33;117332;1185;23555;-59
2021/09/30 04:34:45;;;;;;;18.10;10.30;;;;;;;10.42;52.86;101946.55;117296;1182;22915;-59
2021/09/30 04:37:14;;;;;;;18.30;10.40;;;;;;;10.47;52.76;101941.52;117337;1185;23544;-60
2021/09/30 04:39:42;;;;;;;16.40;10.20;;;;;;;10.50;52.77;101940.52;117392;1184;22925;-59
2021/09/30 04:42:10;;;;;;;15.70;9.90;;;;;;;10.54;52.87;101943.39;117323;1182;23438;-59
2021/09/30 04:44:39;;;;;;;22.60;10.50;;;;;;;10.60;52.84;101945.04;117390;1182;23559;-59
2021/09/30 04:47:08;;;;;;;15.50;11.30;;;;;;;10.67;52.81;101950.56;117069;1186;23567;-59
2021/09/30 04:49:37;;;;;;;15.90;11.10;;;;;;;10.72;52.78;101952.38;117210;1186;23592;-60
2021/09/30 04:52:05;;;;;;;18.60;10.90;;;;;;;10.78;52.80;101952.80;117040;1186;23547;-59
2021/09/30 04:54:33;;;;;;;20.20;11.30;;;;;;;10.83;52.83;101949.36;117112;1186;21917;-60
2021/09/30 04:57:03;;;;;;;16.60;10.80;;;;;;;10.89;52.95;101946.80;117139;1183;21870;-59
2021/09/30 04:59:32;;;;;;;19.40;10.90;;;;;;;10.96;52.95;101948.27;117116;1186;21866;-60
2021/09/30 05:02:01;;;;;;;17.70;11.40;;;;;;;11.01;53.03;101948.16;117133;1183;23018;-64
2021/09/30 05:04:30;;;;;;;24.30;11.50;;;;;;;11.11;53.14;101944.05;117221;1185;22967;-61
2021/09/30 05:06:59;;;;;;;19.10;12.00;;;;;;;11.26;53.24;101943.84;117263;1182;23557;-60
2021/09/30 05:09:28;;;;;;;17.90;11.30;;;;;;;11.40;53.26;101943.45;117333;1185;23590;-61
2021/09/30 05:12:00;;;;;;;19.60;11.20;;;;;;;11.50;53.24;101940.89;117099;1182;23647;-60
2021/09/30 05:14:29;;;;;;;19.00;10.70;;;;;;;11.58;53.25;101940.96;117285;1186;23548;-61
2021/09/30 05:16:57;;;;;;;17.50;10.80;;;;;;;11.67;53.23;101936.30;117360;1183;23615;-60
2021/09/30 05:19:27;;;;;;;20.80;11.20;;;;;;;11.77;53.31;101941.65;117248;1186;23807;-59
2021/09/30 05:21:55;;;;;;;15.80;11.40;;;;;;;11.86;53.36;101940.66;117038;1187;21865;-60
2021/09/30 05:24:24;;;;;;;15.20;11.00;;;;;;;11.94;53.35;101940.19;117322;1186;23141;-61
2021/09/30 05:26:52;;;;;;;15.90;10.40;;;;;;;12.03;53.24;101938.52;117299;1186;23777;-62
2021/09/30 05:29:22;;;;;;;15.40;11.10;;;;;;;12.13;53.32;101942.27;117058;1186;21861;-60
2021/09/30 05:31:50;;;;;;;18.90;11.30;;;;;;;12.21;53.35;101948.31;117152;1186;23606;-60
2021/09/30 05:34:18;;;;;;;15.70;10.50;;;;;;;12.32;53.35;101954.02;117207;1186;21858;-60
2021/09/30 05:36:46;;;;;;;14.20;9.90;;;;;;;12.44;53.51;101950.20;117629;1186;24159;-60
2021/09/30 05:39:14;;;;;;;15.00;10.70;;;;;;;12.52;53.58;101953.42;117112;1186;23544;-60
2021/09/30 05:41:47;;;;;;;19.00;11.90;;;;;;;12.62;53.47;101958.73;117047;1186;23815;-60
2021/09/30 05:44:21;;;;;;;15.50;10.90;;;;;;;12.74;53.71;101961.43;117268;1186;21890;-60
2021/09/30 05:46:53;;;;;;;17.10;10.70;;;;;;;12.87;53.37;101962.02;117316;1182;22447;-60
2021/09/30 05:49:23;;;;;;;15.10;11.30;;;;;;;12.98;53.48;101965.57;117249;1184;22918;-60
2021/09/30 05:51:51;;;;;;;15.30;10.90;;;;;;;13.11;53.49;101963.67;117374;1185;21863;-60
2021/09/30 05:54:19;;;;;;;16.60;10.70;;;;;;;13.25;53.59;101966.35;117311;1185;21901;-60
2021/09/30 05:56:49;;;;;;;16.40;10.70;;;;;;;13.37;53.48;101970.79;117264;1182;23639;-59
2021/09/30 05:59:21;;;;;;;18.10;11.60;;;;;;;13.51;53.67;101971.16;117315;1185;23807;-60
2021/09/30 06:12:51;;;;;;;16.50;11.30;;;;;;;14.25;53.77;101965.65;117341;1182;23544;-60
2021/09/30 06:15:26;;;;;;;17.50;10.50;;;;;;;14.42;53.79;101968.42;117326;1184;23531;-60
2021/09/30 06:17:58;;;;;;;15.00;9.80;;;;;;;14.59;53.81;101973.67;117348;1183;21856;-60
2021/09/30 06:20:46;;;;;;;16.80;10.80;;;;;;;14.77;53.93;101977.52;117306;1185;22965;-61
2021/09/30 06:23:15;;;;;;;13.70;10.60;;;;;;;14.96;54.02;101975.86;117266;1186;21858;-60
2021/09/30 06:25:44;;;;;;;17.10;10.40;;;;;;;15.18;54.08;101979.09;117346;1185;21859;-55
2021/09/30 06:28:12;;;;;;;17.00;11.00;;;;;;;15.37;54.00;101977.73;117408;1186;21860;-55
2021/09/30 06:30:40;;;;;;;14.40;9.70;;;;;;;15.57;54.07;101976.02;117266;1188;21868;-55
2021/09/30 06:33:18;;;;;;;18.10;10.20;;;;;;;15.74;54.05;101977.45;117267;1176;23579;-55
2021/09/30 06:35:47;;;;;;;13.40;9.50;;;;;;;15.91;54.08;101980.16;117248;1182;22650;-55
2021/09/30 06:38:35;;;;;;;14.50;9.50;;;;;;;16.10;53.95;101977.52;117252;1183;21858;-56
2021/09/30 06:41:04;;;;;;;16.90;9.40;;;;;;;16.17;53.70;101972.13;117392;1185;22164;-55
2021/09/30 06:43:33;;;;;;;13.70;9.50;;;;;;;16.17;53.52;101974.44;117275;1185;23650;-55
2021/09/30 06:46:01;;;;;;;14.10;10.00;;;;;;;16.14;53.51;101974.46;117312;1185;21918;-55
2021/09/30 06:48:29;;;;;;;12.80;9.50;;;;;;;16.14;53.48;101973.93;117328;1179;22958;-55
2021/09/30 06:50:58;;;;;;;15.30;8.70;;;;;;;16.18;53.51;101977.80;117266;1186;21854;-53
2021/09/30 06:53:26;;;;;;;17.40;9.60;;;;;;;16.27;53.57;101975.05;117319;1185;21859;-52
2021/09/30 06:55:59;;;;;;;15.00;9.90;;;;;;;16.41;53.66;101984.81;117353;1186;21858;-53
2021/09/30 06:58:27;;;;;;;17.40;9.60;;;;;;;16.59;53.75;101981.95;117309;1182;23990;-52
2021/09/30 07:00:57;;;;;;;14.70;9.50;;;;;;;16.78;53.78;101983.14;117348;1186;22995;-53
2021/09/30 07:03:27;;;;;;;16.40;8.40;;;;;;;16.99;53.88;101985.02;117336;1188;21860;-53
2021/09/30 07:05:55;;;;;;;12.70;9.10;;;;;;;17.25;53.89;101986.97;117367;1185;21866;-53
2021/09/30 07:08:23;;;;;;;12.50;8.80;;;;;;;17.45;54.00;101983.30;117318;1185;21860;-54
2021/09/30 07:10:51;;;;;;;11.70;8.70;;;;;;;17.68;53.86;101989.50;117231;1186;21859;-54
2021/09/30 07:13:20;;;;;;;11.60;8.60;;;;;;;17.90;53.77;101987.02;117312;1184;23545;-53
2021/09/30 07:15:49;;;;;;;11.60;8.10;;;;;;;18.04;53.79;101976.34;117443;1185;21899;-53
2021/09/30 07:18:37;;;;;;;12.20;8.80;;;;;;;18.21;53.86;101975.30;117290;1184;23951;-54
2021/09/30 07:21:06;;;;;;;11.80;8.50;;;;;;;18.39;53.90;101971.22;117361;1183;21854;-54
2021/09/30 07:23:34;;;;;;;13.20;8.70;;;;;;;18.57;53.86;101966.05;117302;1185;23569;-55
2021/09/30 07:26:03;;;;;;;12.00;7.70;;;;;;;18.73;53.72;101970.34;117340;1185;23451;-53
2021/09/30 07:28:31;;;;;;;9.60;7.20;;;;;;;18.86;53.59;101969.90;117314;1185;21898;-53
2021/09/30 07:31:00;;;;;;;10.70;7.10;;;;;;;18.95;53.50;101969.55;117354;1181;23544;-52
2021/09/30 07:33:28;;;;;;;10.40;7.30;;;;;;;19.03;53.42;101966.53;117305;1183;22024;-54
2021/09/30 07:35:59;;;;;;;10.00;7.20;;;;;;;19.09;53.22;101969.23;117394;1183;23627;-54
2021/09/30 07:38:28;;;;;;;12.10;7.80;;;;;;;19.07;52.99;101968.21;117345;1186;21869;-54
2021/09/30 07:40:56;;;;;;;15.00;7.20;;;;;;;18.98;52.90;101966.64;117365;1185;23439;-54
2021/09/30 07:43:24;;;;;;;9.40;6.90;;;;;;;18.84;52.87;101970.13;117318;1182;23567;-53
2021/09/30 07:45:53;;;;;;;11.30;7.40;;;;;;;18.66;52.86;101972.11;117305;1184;21926;-55
2021/09/30 07:48:21;;;;;;;14.30;7.40;;;;;;;18.51;52.76;101973.45;117335;1185;21858;-53
2021/09/30 07:50:50;;;;;;;9.60;7.30;;;;;;;18.39;52.66;101969.98;117374;1183;23570;-53
2021/09/30 07:53:18;;;;;;;13.00;7.70;;;;;;;18.24;52.67;101970.26;117405;1189;21899;-54
2021/09/30 07:55:48;;;;;;;8.60;6.70;;;;;;;18.19;52.84;101970.02;117294;1185;23547;-53
2021/09/30 07:58:15;;;;;;;12.00;8.10;;;;;;;18.24;52.96;101970.45;117292;1185;21858;-53
2021/09/30 08:00:44;;;;;;;11.70;7.90;;;;;;;18.35;53.08;101973.77;117332;1184;23544;-53
2021/09/30 08:03:12;;;;;;;12.70;7.70;;;;;;;18.55;53.11;101968.41;117312;1185;22958;-53
2021/09/30 08:05:42;;;;;;;10.20;7.60;;;;;;;18.65;53.04;101965.91;117282;1185;23545;-55
2021/09/30 08:08:10;;;;;;;14.00;7.30;;;;;;;18.71;52.87;101967.02;117309;1178;23631;-54
2021/09/30 08:10:39;;;;;;;11.00;7.40;;;;;;;18.74;52.75;101964.47;117300;1185;23570;-53
2021/09/30 08:13:09;;;;;;;12.90;8.10;;;;;;;18.70;52.75;101961.89;117300;1185;22611;-53
2021/09/30 08:15:39;;;;;;;12.10;8.00;;;;;;;18.69;52.73;101961.55;117340;1182;23611;-52
2021/09/30 08:18:07;;;;;;;13.10;8.10;;;;;;;18.60;52.59;101959.23;117327;1186;23709;-55
2021/09/30 08:20:44;;;;;;;9.00;7.20;;;;;;;18.56;52.54;101961.64;117323;1185;23586;-54
2021/09/30 08:23:13;;;;;;;9.80;6.80;;;;;;;18.54;52.44;101955.98;117341;1185;21857;-53
2021/09/30 08:25:41;;;;;;;9.70;6.30;;;;;;;18.47;52.38;101951.70;117359;1185;21856;-54
2021/09/30 08:28:10;;;;;;;11.00;6.40;;;;;;;18.33;52.32;101953.94;117358;1185;21898;-55
2021/09/30 08:30:40;;;;;;;8.80;6.00;;;;;;;18.22;52.19;101955.39;117353;1185;21859;-54
2021/09/30 08:33:09;;;;;;;9.70;6.10;;;;;;;18.11;52.26;101953.11;117401;1183;22645;-54
2021/09/30 08:35:37;;;;;;;14.50;7.50;;;;;;;17.99;52.29;101952.95;117349;1185;21856;-54
2021/09/30 08:38:06;;;;;;;9.10;6.60;;;;;;;17.98;52.44;101952.61;117283;1185;21916;-53
2021/09/30 08:40:34;;;;;;;7.60;5.10;;;;;;;18.13;52.91;101950.21;117353;1185;21857;-55
2021/09/30 08:43:04;;;;;;;7.80;5.30;;;;;;;18.46;53.17;101951.00;117373;1185;23462;-53
2021/09/30 08:45:33;;;;;;;11.00;5.60;;;;;;;18.85;53.11;101948.06;117343;1179;22198;-53
2021/09/30 08:48:04;;;;;;;9.60;4.50;;;;;;;19.20;53.03;101937.69;117334;1183;23534;-53
2021/09/30 08:50:38;;;;;;;7.10;4.80;;;;;;;19.41;53.04;101933.45;117387;1182;23547;-54
2021/09/30 08:53:11;;;;;;;6.60;4.50;;;;;;;19.56;52.77;101936.82;117305;1185;21910;-53
2021/09/30 08:55:40;;;;;;;7.10;4.20;;;;;;;19.61;52.67;101939.00;117331;1184;22537;-54
2021/09/30 08:58:09;;;;;;;5.60;4.20;;;;;;;19.72;52.65;101935.17;117308;1186;23556;-54
2021/09/30 09:00:42;;;;;;;6.00;4.40;;;;;;;19.93;52.73;101927.14;117323;1185;23541;-54
2021/09/30 09:03:10;;;;;;;6.20;4.70;;;;;;;20.21;52.81;101928.35;117356;1182;22694;-55
2021/09/30 09:05:40;;;;;;;6.40;4.90;;;;;;;20.54;52.98;101927.42;117364;1185;21863;-49
2021/09/30 09:08:09;;;;;;;10.30;4.70;;;;;;;20.92;53.05;101926.30;117358;1185;22160;-54
2021/09/30 09:10:57;;;;;;;9.50;4.30;;;;;;;21.36;53.11;101925.81;117109;1186;22922;-54
2021/09/30 09:13:26;;;;;;;11.70;4.60;;;;;;;21.70;53.09;101924.35;117317;1186;21868;-55
2021/09/30 09:15:59;;;;;;;5.40;4.10;;;;;;;21.98;52.89;101919.61;117345;1185;23544;-53
2021/09/30 09:18:41;;;;;;;8.60;4.00;;;;;;;22.24;52.74;101916.35;117434;1185;23595;-55
2021/09/30 09:21:29;;;;;;;6.10;3.60;;;;;;;22.44;52.65;101912.98;117196;1185;21858;-54
2021/09/30 09:23:58;;;;;;;6.20;3.80;;;;;;;22.59;52.59;101913.47;117031;1184;23570;-53
2021/09/30 09:26:34;;;;;;;6.70;4.40;;;;;;;22.67;52.31;101914.94;117269;1184;23455;-54
2021/09/30 09:29:02;;;;;;;5.00;3.90;;;;;;;22.59;52.15;101914.70;117414;1187;21886;-52
2021/09/30 09:31:38;;;;;;;6.00;4.00;;;;;;;22.52;52.05;101920.33;117361;1185;23544;-53
2021/09/30 09:34:28;;;;;;;4.80;3.50;;;;;;;22.33;51.76;101913.52;117336;1182;21866;-53
2021/09/30 09:37:34;;;;;;;4.80;3.60;;;;;;;22.04;51.47;101917.06;117253;1182;21871;-53
2021/09/30 09:40:17;;;;;;;6.70;3.50;;;;;;;21.85;51.59;101916.67;117309;1185;22083;-55
2021/09/30 09:42:45;;;;;;;6.50;3.50;;;;;;;21.76;51.51;101915.58;117364;1180;22917;-54
2021/09/30 09:45:14;;;;;;;7.90;3.70;;;;;;;21.70;51.46;101916.13;117359;1186;23443;-55
2021/09/30 09:47:43;;;;;;;6.70;3.30;;;;;;;21.79;51.48;101913.84;117425;1184;23654;-54
2021/09/30 09:50:16;;;;;;;5.20;3.10;;;;;;;21.84;51.79;101907.96;117376;1185;23557;-54
2021/09/30 09:52:45;;;;;;;6.30;3.00;;;;;;;22.05;51.79;101912.23;117365;1182;22843;-55
2021/09/30 09:55:35;;;;;;;5.80;3.80;;;;;;;22.40;51.61;101910.78;117300;1180;22928;-55
2021/09/30 09:58:08;;;;;;;5.90;3.60;;;;;;;22.59;51.63;101916.69;117359;1181;22923;-53
2021/09/30 10:00:39;;;;;;;6.10;4.10;;;;;;;22.78;51.72;101909.31;117334;1182;23547;-53
2021/09/30 10:03:16;;;;;;;7.40;3.50;;;;;;;22.95;51.69;101905.60;117288;1184;23543;-53
2021/09/30 10:05:45;;;;;;;6.10;3.90;;;;;;;23.15;51.54;101904.27;117364;1182;24133;-53
2021/09/30 10:08:17;;;;;;;8.60;3.70;;;;;;;23.40;51.44;101896.64;117365;1184;22916;-54
2021/09/30 10:10:46;;;;;;;6.80;3.70;;;;;;;23.59;51.48;101894.05;117333;1183;22929;-55
2021/09/30 10:13:15;;;;;;;4.50;3.00;;;;;;;23.60;51.59;101891.16;117282;1185;24792;-55
2021/09/30 10:16:04;;;;;;;6.90;3.30;;;;;;;23.66;51.89;101887.67;117326;1185;21866;-55
2021/09/30 10:18:34;;;;;;;5.40;2.80;;;;;;;23.72;51.71;101888.98;117306;1185;21849;-54
2021/09/30 10:21:14;;;;;;;3.70;2.80;;;;;;;23.72;51.73;101883.13;117309;1181;23576;-55
2021/09/30 10:23:42;;;;;;;5.60;3.00;;;;;;;23.78;51.78;101882.85;117247;1182;23641;-55
2021/09/30 10:26:15;;;;;;;5.60;2.90;;;;;;;23.91;51.76;101886.59;117356;1183;23544;-54
2021/09/30 10:28:45;;;;;;;12.00;5.10;;;;;;;24.06;51.79;101884.31;117332;1185;21858;-54
2021/09/30 10:31:23;;;;;;;9.00;3.80;;;;;;;24.11;51.66;101877.08;117287;1184;21862;-54
2021/09/30 10:33:53;;;;;;;7.30;3.30;;;;;;;24.17;51.45;101875.92;117348;1182;21898;-53
2021/09/30 10:36:29;;;;;;;7.00;3.00;;;;;;;24.23;51.42;101876.03;117399;1183;23466;-54
2021/09/30 10:39:28;;;;;;;10.60;3.50;;;;;;;24.38;51.31;101878.02;117353;1184;24006;-53
2021/09/30 10:42:01;;;;;;;13.10;5.20;;;;;;;24.53;51.12;101878.94;117318;1185;22613;-52
2021/09/30 10:44:36;;;;;;;19.30;6.20;;;;;;;24.59;50.95;101876.30;117383;1185;22948;-54
2021/09/30 10:47:05;;;;;;;25.90;7.60;;;;;;;24.67;50.92;101874.14;117368;1184;23545;-55
2021/09/30 10:49:45;;;;;;;5.80;3.10;;;;;;;24.71;50.82;101869.48;117339;1183;22605;-56
2021/09/30 10:52:20;;;;;;;8.10;3.40;;;;;;;24.75;50.76;101861.95;117327;1185;21903;-56
2021/09/30 10:55:22;;;;;;;8.40;2.80;;;;;;;24.72;50.82;101857.78;117362;1182;23547;-55
2021/09/30 10:57:52;;;;;;;5.60;2.70;;;;;;;24.67;50.94;101858.89;117225;1185;21863;-55
2021/09/30 11:00:20;;;;;;;6.60;2.30;;;;;;;24.69;50.76;101860.96;117346;1185;21858;-55
2021/09/30 11:03:02;;;;;;;4.20;2.40;;;;;;;24.73;50.81;101856.66;117436;1184;22934;-54
2021/09/30 11:05:32;;;;;;;6.60;2.30;;;;;;;24.74;50.55;101854.44;117140;1186;22897;-54
2021/09/30 11:08:19;;;;;;;10.90;4.10;;;;;;;24.74;50.56;101860.03;117156;1184;21858;-53
2021/09/30 11:11:04;;;;;;;10.40;4.10;;;;;;;24.73;50.39;101853.98;117327;1185;21848;-52
2021/09/30 11:13:37;;;;;;;5.60;2.70;;;;;;;24.74;50.48;101852.29;117363;1180;22958;-54
2021/09/30 11:16:16;;;;;;;8.10;2.70;;;;;;;24.75;50.34;101848.96;117316;1183;23556;-53
2021/09/30 11:18:58;;;;;;;5.10;2.20;;;;;;;24.79;50.37;101846.46;117339;1184;23564;-55
2021/09/30 11:21:32;;;;;;;3.80;1.70;;;;;;;24.85;50.32;101846.73;117332;1185;21861;-55
2021/09/30 11:24:00;;;;;;;5.10;2.30;;;;;;;24.90;50.11;101846.83;117385;1184;21867;-54
2021/09/30 11:26:32;;;;;;;5.80;2.50;;;;;;;24.91;50.02;101841.61;117341;1182;23570;-54
2021/09/30 11:29:26;;;;;;;6.40;1.90;;;;;;;24.91;49.99;101845.38;117340;1185;23547;-55
2021/09/30 11:31:56;;;;;;;4.40;1.90;;;;;;;24.92;49.97;101843.55;117387;1188;23570;-55
2021/09/30 11:34:50;;;;;;;4.50;2.00;;;;;;;24.89;49.83;101841.31;117343;1185;23560;-53
2021/09/30 11:37:24;;;;;;;6.30;2.70;;;;;;;24.84;49.74;101838.16;117287;1184;22224;-53
2021/09/30 11:39:56;;;;;;;5.20;2.20;;;;;;;24.83;49.68;101835.54;117333;1185;23661;-53
2021/09/30 11:42:35;;;;;;;3.90;2.20;;;;;;;24.83;49.81;101833.00;117440;1182;21861;-53
2021/09/30 11:45:11;;;;;;;5.70;2.00;;;;;;;24.88;49.73;101835.28;117318;1186;23551;-53
2021/09/30 11:47:40;;;;;;;4.90;2.30;;;;;;;24.93;49.72;101837.54;117356;1183;23207;-54
2021/09/30 11:50:22;;;;;;;5.30;2.30;;;;;;;24.92;49.73;101828.61;117340;1183;21857;-53
2021/09/30 11:53:00;;;;;;;6.60;1.90;;;;;;;24.95;49.75;101823.27;117334;1182;23443;-56
2021/09/30 11:55:29;;;;;;;6.10;2.00;;;;;;;25.01;49.62;101824.60;117358;1185;22092;-54
2021/09/30 11:58:02;;;;;;;6.10;2.60;;;;;;;25.02;49.48;101827.42;117235;1183;23547;-54
2021/09/30 12:00:33;;;;;;;6.60;2.60;;;;;;;24.99;49.49;101825.23;117358;1185;21864;-55
2021/09/30 12:03:16;;;;;;;11.10;2.70;;;;;;;24.95;49.36;101821.45;117283;1184;22936;-54
2021/09/30 12:05:44;;;;;;;7.20;2.80;;;;;;;24.90;49.18;101820.46;117293;1185;21859;-53
2021/09/30 12:08:14;;;;;;;6.30;2.60;;;;;;;24.80;49.13;101820.92;117360;1184;22908;-54
2021/09/30 12:10:42;;;;;;;5.70;2.80;;;;;;;24.75;49.19;101816.73;117349;1185;23432;-56
2021/09/30 12:13:18;;;;;;;11.90;3.10;;;;;;;24.70;49.20;101815.33;117231;1184;23567;-55
2021/09/30 12:15:48;;;;;;;11.60;2.50;;;;;;;24.65;49.03;101808.52;117289;1184;23566;-54
2021/09/30 12:18:21;;;;;;;6.60;2.00;;;;;;;24.60;48.95;101812.20;117339;1185;21902;-51
2021/09/30 12:20:53;;;;;;;6.10;1.90;;;;;;;24.64;49.16;101809.34;117452;1183;22916;-53
2021/09/30 12:23:41;;;;;;;6.30;2.30;;;;;;;24.73;49.14;101807.08;117287;1189;23616;-53
2021/09/30 12:26:14;;;;;;;6.00;2.10;;;;;;;24.81;49.07;101806.39;117143;1186;23549;-49
2021/09/30 12:28:45;;;;;;;8.00;2.20;;;;;;;24.83;49.02;101812.21;117312;1186;21867;-53
2021/09/30 12:31:16;;;;;;;5.20;3.00;;;;;;;24.79;48.91;101810.20;117220;1185;24015;-52
2021/09/30 12:33:44;;;;;;;5.50;2.50;;;;;;;24.65;48.66;101806.56;118504;1185;23451;-52
2021/09/30 12:36:13;;;;;;;6.50;2.10;;;;;;;24.54;48.67;101802.98;117357;1185;21899;-52
2021/09/30 12:38:41;;;;;;;7.80;3.10;;;;;;;24.48;48.68;101800.56;117138;1186;22898;-53
2021/09/30 12:41:09;;;;;;;4.20;2.00;;;;;;;24.41;48.56;101797.35;117307;1187;23120;-54
2021/09/30 12:43:43;;;;;;;6.80;2.00;;;;;;;24.31;48.56;101794.95;117192;1186;22917;-53
2021/09/30 12:46:13;;;;;;;4.90;2.70;;;;;;;24.24;48.55;101792.40;117279;1184;23462;-54
2021/09/30 12:48:41;;;;;;;5.00;3.20;;;;;;;24.19;48.55;101797.48;117234;1184;22439;-53
2021/09/30 12:51:13;;;;;;;6.70;2.40;;;;;;;24.14;48.53;101799.67;117280;1184;23644;-54
2021/09/30 12:53:45;;;;;;;4.10;2.40;;;;;;;24.10;48.46;101803.27;117385;1183;23481;-54
2021/09/30 12:56:15;;;;;;;5.60;2.30;;;;;;;24.04;48.31;101797.83;117329;1181;23442;-54
2021/09/30 12:58:47;;;;;;;5.00;2.20;;;;;;;23.96;48.40;101794.76;117300;1185;21858;-51
2021/09/30 13:01:25;;;;;;;6.00;2.10;;;;;;;23.93;48.52;101794.71;117290;1185;23540;-60
2021/09/30 13:04:14;;;;;;;8.90;3.10;;;;;;;23.99;48.58;101795.52;117330;1180;22919;-60
2021/09/30 13:06:55;;;;;;;7.00;3.10;;;;;;;24.05;48.47;101794.19;117309;1182;23442;-62
2021/09/30 13:09:29;;;;;;;10.20;3.00;;;;;;;24.12;48.40;101799.79;117285;1182;22978;-61
2021/09/30 13:12:01;;;;;;;14.20;3.00;;;;;;;24.14;48.20;101792.14;117264;1183;22657;-61
2021/09/30 13:14:35;;;;;;;17.00;3.60;;;;;;;24.18;48.22;101790.71;117244;1186;23590;-62
2021/09/30 13:17:14;;;;;;;18.60;2.80;;;;;;;24.17;48.10;101790.19;117408;1185;21859;-60
2021/09/30 13:19:46;;;;;;;26.70;4.30;;;;;;;24.13;47.98;101788.80;117311;1185;21901;-59
2021/09/30 13:22:29;;;;;;;11.60;2.80;;;;;;;24.05;47.97;101784.66;117322;1189;21861;-60
2021/09/30 13:24:58;;;;;;;8.30;2.30;;;;;;;23.95;47.89;101779.73;117334;1183;21847;-61
2021/09/30 13:27:29;;;;;;;16.50;3.00;;;;;;;23.87;47.86;101782.58;117345;1183;22900;-61
2021/09/30 13:29:57;;;;;;;9.60;2.60;;;;;;;23.82;47.71;101781.21;117350;1183;23450;-61
2021/09/30 13:32:26;;;;;;;16.70;2.60;;;;;;;23.81;47.76;101776.45;117328;1185;24231;-61
2021/09/30 13:34:55;;;;;;;9.40;2.80;;;;;;;23.78;47.56;101776.58;117291;1184;23548;-61
2021/09/30 13:37:25;;;;;;;11.00;2.80;;;;;;;23.72;47.46;101773.60;117356;1185;21855;-61
2021/09/30 13:39:57;;;;;;;12.30;2.70;;;;;;;23.65;47.24;101775.72;117324;1182;23446;-60
2021/09/30 13:42:30;;;;;;;8.80;2.00;;;;;;;23.54;47.05;101773.52;117270;1184;21859;-59
2021/09/30 13:44:59;;;;;;;10.20;2.60;;;;;;;23.43;47.11;101772.76;117381;1183;23544;-60
2021/09/30 13:47:28;;;;;;;5.10;2.00;;;;;;;23.35;47.06;101769.37;117263;1185;23750;-60
2021/09/30 13:49:57;;;;;;;5.60;2.10;;;;;;;23.27;46.96;101768.61;117244;1184;22916;-59
2021/09/30 13:52:31;;;;;;;7.50;4.40;;;;;;;23.21;46.99;101763.67;117248;1182;23544;-60
2021/09/30 13:55:00;;;;;;;8.60;3.70;;;;;;;23.14;47.08;101765.94;117328;1181;21865;-60
2021/09/30 13:57:34;;;;;;;7.80;3.10;;;;;;;23.08;47.03;101766.20;117420;1185;22427;-59
2021/09/30 14:00:05;;;;;;;6.40;2.50;;;;;;;23.00;47.05;101764.92;117359;1185;21858;-60
2021/09/30 14:02:42;;;;;;;5.30;2.30;;;;;;;22.91;46.98;101758.86;117288;1185;21951;-61
2021/09/30 14:05:12;;;;;;;6.80;2.00;;;;;;;22.84;46.89;101757.19;117327;1185;23531;-60
2021/09/30 14:07:41;;;;;;;6.20;2.20;;;;;;;22.75;46.94;101758.46;117350;1186;21865;-59
2021/09/30 14:10:12;;;;;;;8.30;1.90;;;;;;;22.64;46.86;101754.77;117352;1185;22622;-61